Time;durP1;ratioP1;P1;durP2;ratioP2;P2;SDS_P1;SDS_P2;PMS_P1;PMS_P2;Temp;Humidity;BMP_temperature;BMP_pressure;BME280_temperature;BME280_humidity;BME280_pressure;Samples;Min_cycle;Max_cycle;Signal;HPM_P1;HPM_P2
2022/07/29 00:01:29;;;;;;;20.83;6.65;;;;;;;17.89;62.41;99235.44;5072640;28;20493;-56
2022/07/29 00:03:54;;;;;;;16.70;5.85;;;;;;;17.84;62.93;99232.78;5072999;28;20113;-55
2022/07/29 00:06:20;;;;;;;14.40;6.47;;;;;;;17.66;64.26;99227.00;5073711;28;20036;-55
2022/07/29 00:08:46;;;;;;;13.63;5.97;;;;;;;17.56;62.77;99237.16;5072178;28;20394;-55
2022/07/29 00:11:11;;;;;;;23.10;5.97;;;;;;;17.66;61.87;99234.34;5078294;28;20028;-57
2022/07/29 00:13:37;;;;;;;17.48;5.45;;;;;;;17.45;63.07;99226.44;5074131;28;20028;-54
2022/07/29 00:16:02;;;;;;;17.45;6.15;;;;;;;17.51;62.50;99231.81;5076711;28;20383;-55
2022/07/29 00:18:28;;;;;;;20.05;5.88;;;;;;;17.46;62.80;99228.03;5071372;28;20438;-55
2022/07/29 00:20:53;;;;;;;18.77;5.57;;;;;;;17.54;62.25;99233.94;5072186;28;20055;-56
2022/07/29 00:23:19;;;;;;;11.75;5.53;;;;;;;17.55;61.76;99228.25;5073194;28;20028;-55
2022/07/29 00:25:44;;;;;;;14.68;6.28;;;;;;;17.54;62.92;99226.59;5077115;28;20028;-56
2022/07/29 00:28:09;;;;;;;18.83;6.25;;;;;;;17.33;64.29;99223.31;5071727;28;20035;-56
2022/07/29 00:30:35;;;;;;;28.33;6.63;;;;;;;17.24;65.26;99217.72;5072743;28;20035;-56
2022/07/29 00:33:00;;;;;;;12.00;5.80;;;;;;;17.16;65.18;99217.53;5072403;28;20036;-56
2022/07/29 00:35:44;;;;;;;15.45;5.50;;;;;;;17.37;62.43;99220.84;5073038;28;20031;-56
2022/07/29 00:38:16;;;;;;;16.80;5.10;;;;;;;17.28;62.17;99219.88;5072618;28;20032;-56
2022/07/29 00:40:42;;;;;;;12.30;5.63;;;;;;;17.23;62.36;99223.44;5073944;28;20017;-55
2022/07/29 00:43:08;;;;;;;14.45;5.38;;;;;;;17.10;63.10;99218.66;5076247;28;20029;-55
2022/07/29 00:45:33;;;;;;;16.58;5.97;;;;;;;17.35;61.85;99215.72;5072944;28;20433;-54
2022/07/29 00:47:58;;;;;;;18.67;5.55;;;;;;;17.54;60.56;99209.53;5070718;28;20028;-56
2022/07/29 00:50:24;;;;;;;15.07;5.38;;;;;;;17.54;60.70;99212.25;5076864;28;20416;-55
2022/07/29 00:52:49;;;;;;;13.82;5.53;;;;;;;17.41;61.60;99214.56;5073900;28;20020;-57
2022/07/29 00:55:15;;;;;;;19.20;5.60;;;;;;;17.16;63.06;99212.13;5071396;28;20024;-57
2022/07/29 00:57:41;;;;;;;16.42;5.22;;;;;;;17.22;62.68;99209.09;5071176;28;20044;-57
2022/07/29 01:00:09;;;;;;;12.50;5.45;;;;;;;17.12;63.98;99211.06;5072367;28;20081;-57
2022/07/29 01:02:34;;;;;;;7.97;5.13;;;;;;;17.12;64.56;99206.44;5072222;28;20029;-55
2022/07/29 01:05:01;;;;;;;14.00;6.20;;;;;;;17.09;64.84;99201.63;5072110;28;20032;-56
2022/07/29 01:07:26;;;;;;;12.30;5.60;;;;;;;17.12;64.99;99194.81;5071210;28;20403;-58
2022/07/29 01:09:51;;;;;;;20.90;6.50;;;;;;;16.99;66.11;99175.44;5071170;28;20024;-57
2022/07/29 01:12:18;;;;;;;24.73;6.57;;;;;;;16.76;66.93;99181.59;5072016;28;20032;-56
2022/07/29 01:14:47;;;;;;;15.27;6.18;;;;;;;16.69;67.14;99171.09;5072487;28;20024;-57
2022/07/29 01:18:11;;;;;;;15.55;6.50;;;;;;;16.74;66.42;99170.25;5070823;28;20046;-56
2022/07/29 01:21:08;;;;;;;15.77;6.15;;;;;;;16.89;64.15;99163.91;5068446;28;20051;-57
2022/07/29 01:23:45;;;;;;;11.77;6.00;;;;;;;16.87;64.80;99160.69;5072083;28;20030;-57
2022/07/29 01:26:23;;;;;;;14.50;5.80;;;;;;;16.64;66.69;99167.63;5072021;28;20116;-57
2022/07/29 01:29:16;;;;;;;15.20;6.43;;;;;;;16.49;67.81;99169.38;5071766;28;20036;-57
2022/07/29 01:31:51;;;;;;;15.25;6.25;;;;;;;16.59;67.13;99177.41;5078558;28;20020;-57
2022/07/29 01:34:47;;;;;;;18.08;5.88;;;;;;;16.40;66.04;99168.38;5054684;28;20382;-57
2022/07/29 01:37:18;;;;;;;22.73;5.70;;;;;;;16.49;64.61;99177.47;5071957;28;20490;-57
2022/07/29 01:39:43;;;;;;;10.30;5.63;;;;;;;16.49;64.21;99169.38;5072016;28;20055;-58
2022/07/29 01:42:29;;;;;;;17.48;6.65;;;;;;;16.38;64.41;99159.72;5070761;28;20554;-57
2022/07/29 01:45:02;;;;;;;19.55;5.57;;;;;;;16.35;64.37;99160.31;5070957;28;20368;-57
2022/07/29 01:47:40;;;;;;;13.90;6.15;;;;;;;16.44;63.87;99157.78;5077517;28;20382;-57
2022/07/29 01:50:07;;;;;;;17.33;6.30;;;;;;;16.45;64.73;99168.34;5070617;28;20070;-57
2022/07/29 01:52:44;;;;;;;21.80;6.30;;;;;;;16.52;64.76;99165.28;5071919;28;20024;-57
2022/07/29 01:55:14;;;;;;;19.13;6.20;;;;;;;16.54;64.28;99161.22;5076771;28;20021;-58
2022/07/29 01:57:40;;;;;;;17.23;5.82;;;;;;;16.38;65.70;99165.13;5070499;28;20506;-56
2022/07/29 02:00:06;;;;;;;14.27;5.88;;;;;;;16.06;67.21;99163.72;5070183;28;20071;-57
2022/07/29 02:02:32;;;;;;;13.63;5.88;;;;;;;15.84;68.15;99168.72;5070691;28;20032;-57
2022/07/29 02:04:57;;;;;;;15.07;6.10;;;;;;;15.88;66.90;99158.97;5056989;28;20161;-56
2022/07/29 02:07:23;;;;;;;14.88;6.63;;;;;;;16.01;65.86;99152.94;5058334;28;20029;-57
2022/07/29 02:09:49;;;;;;;17.20;6.13;;;;;;;16.07;65.35;99151.81;5070378;28;20033;-58
2022/07/29 02:12:14;;;;;;;23.83;6.15;;;;;;;16.12;64.72;99146.38;5070544;28;20129;-56
2022/07/29 02:14:42;;;;;;;13.95;5.75;;;;;;;16.18;64.91;99153.38;5070210;28;20020;-58
2022/07/29 02:17:08;;;;;;;14.88;5.63;;;;;;;16.10;65.58;99142.34;5077842;28;20031;-57
2022/07/29 02:19:33;;;;;;;12.90;5.82;;;;;;;16.11;65.39;99152.88;5069745;28;20016;-56
2022/07/29 02:21:59;;;;;;;20.58;5.70;;;;;;;15.99;65.74;99147.00;5070432;28;20095;-56
2022/07/29 02:24:24;;;;;;;13.23;5.97;;;;;;;16.06;65.93;99144.81;5073248;28;20308;-56
2022/07/29 02:26:50;;;;;;;17.33;5.80;;;;;;;15.98;65.40;99142.69;5075410;28;20107;-56
2022/07/29 02:29:15;;;;;;;11.40;5.15;;;;;;;15.83;66.44;99148.19;5074177;28;20047;-56
2022/07/29 02:31:43;;;;;;;11.73;5.28;;;;;;;15.70;67.12;99150.41;5074261;28;20016;-56
2022/07/29 02:34:09;;;;;;;18.75;7.18;;;;;;;15.74;66.44;99148.75;5079393;28;20036;-57
2022/07/29 02:36:34;;;;;;;15.88;5.65;;;;;;;15.81;66.05;99150.38;5075328;28;20035;-57
2022/07/29 02:39:00;;;;;;;20.80;5.88;;;;;;;15.82;66.11;99146.56;5075398;28;20030;-56
2022/07/29 02:41:30;;;;;;;16.85;6.97;;;;;;;15.49;66.16;99151.56;5073918;28;20482;-57
2022/07/29 02:43:57;;;;;;;;;;;;;;;15.72;64.67;99153.66;5088389;28;20119;-56
2022/07/29 02:46:31;;;;;;;15.43;5.63;;;;;;;15.67;65.19;99140.13;5061231;28;19920;-54
2022/07/29 02:49:15;;;;;;;12.95;5.80;;;;;;;15.61;66.58;99141.25;5064700;28;20114;-57
2022/07/29 02:51:45;;;;;;;13.40;5.60;;;;;;;15.59;66.28;99143.41;5075070;28;20425;-56
2022/07/29 02:54:17;;;;;;;16.73;6.55;;;;;;;15.47;67.21;99145.63;5078154;28;20098;-56
2022/07/29 02:56:42;;;;;;;12.43;5.38;;;;;;;15.30;68.55;99144.06;5057723;28;20028;-57
2022/07/29 02:59:09;;;;;;;19.20;5.93;;;;;;;15.25;68.42;99138.69;5056754;28;20028;-57
2022/07/29 03:01:35;;;;;;;11.90;5.78;;;;;;;15.41;67.63;99138.63;5074929;28;20036;-57
2022/07/29 03:04:02;;;;;;;14.10;5.57;;;;;;;15.34;67.32;99138.13;5069472;28;20385;-56
2022/07/29 03:06:28;;;;;;;16.05;5.68;;;;;;;15.48;66.49;99139.94;5076766;28;20452;-57
2022/07/29 03:08:53;;;;;;;22.85;6.75;;;;;;;15.42;67.38;99137.53;5074568;28;20378;-57
2022/07/29 03:11:20;;;;;;;12.95;6.10;;;;;;;15.44;67.16;99140.78;5074631;28;20467;-57
2022/07/29 03:13:45;;;;;;;15.63;5.22;;;;;;;15.36;67.61;99133.25;5062740;28;20029;-57
2022/07/29 03:16:10;;;;;;;18.00;6.55;;;;;;;14.63;72.25;99137.22;5073699;28;20082;-56
2022/07/29 03:18:36;;;;;;;11.27;6.53;;;;;;;14.77;71.87;99127.47;5074034;28;20086;-57
2022/07/29 03:21:02;;;;;;;17.40;7.10;;;;;;;14.72;71.76;99123.97;5056671;28;20112;-56
2022/07/29 03:23:28;;;;;;;19.60;6.72;;;;;;;14.97;70.32;99128.50;5073256;28;20027;-57
2022/07/29 03:25:53;;;;;;;14.93;5.25;;;;;;;15.25;67.18;99127.06;5073139;28;20032;-56
2022/07/29 03:28:19;;;;;;;11.40;6.32;;;;;;;15.27;67.41;99130.31;5074360;28;20037;-57
2022/07/29 03:30:48;;;;;;;16.25;6.00;;;;;;;15.24;67.70;99128.97;5074375;28;20029;-57
2022/07/29 03:33:14;;;;;;;14.70;6.38;;;;;;;15.09;69.08;99129.00;5074128;28;20037;-56
2022/07/29 03:35:39;;;;;;;16.95;6.57;;;;;;;15.04;69.44;99129.84;5074499;28;20158;-56
2022/07/29 03:38:05;;;;;;;14.27;6.05;;;;;;;14.96;70.39;99129.59;5073872;28;20431;-56
2022/07/29 03:40:54;;;;;;;12.38;5.20;;;;;;;15.15;67.37;99129.81;5074352;28;20024;-57
2022/07/29 03:43:19;;;;;;;21.75;6.13;;;;;;;15.10;68.53;99125.22;5073172;28;20411;-57
2022/07/29 03:45:47;;;;;;;14.95;5.22;;;;;;;15.03;68.50;99124.72;5075553;28;20032;-56
2022/07/29 03:48:13;;;;;;;22.52;5.75;;;;;;;14.96;68.51;99125.00;5073258;28;20033;-55
2022/07/29 03:50:38;;;;;;;15.35;6.03;;;;;;;15.12;67.91;99125.75;5072730;28;20040;-56
2022/07/29 03:53:04;;;;;;;14.18;6.40;;;;;;;15.23;67.44;99121.16;5072693;28;20379;-56
2022/07/29 03:55:33;;;;;;;17.80;5.97;;;;;;;15.25;67.21;99130.59;5072965;28;20028;-56
2022/07/29 03:57:58;;;;;;;14.60;6.40;;;;;;;15.30;66.66;99119.78;5073852;28;20028;-57
2022/07/29 04:00:24;;;;;;;14.18;4.95;;;;;;;15.54;67.35;99125.31;5073953;28;20047;-56
2022/07/29 04:02:50;;;;;;;16.45;6.10;;;;;;;15.54;66.88;99124.53;5065516;28;20032;-55
2022/07/29 04:05:16;;;;;;;12.60;5.63;;;;;;;15.28;68.24;99131.94;5077443;28;20409;-57
2022/07/29 04:07:48;;;;;;;17.35;6.93;;;;;;;15.17;69.41;99130.34;5073501;28;20028;-56
2022/07/29 04:10:15;;;;;;;13.98;7.38;;;;;;;14.99;71.11;99137.94;5073446;28;20035;-58
2022/07/29 04:12:40;;;;;;;14.32;7.35;;;;;;;14.83;71.31;99134.47;5073950;28;20103;-56
2022/07/29 04:15:06;;;;;;;21.83;7.20;;;;;;;14.65;71.83;99143.94;5072478;28;20033;-56
2022/07/29 04:17:32;;;;;;;15.63;6.80;;;;;;;14.68;71.75;99145.28;5081329;28;20385;-56
2022/07/29 04:19:57;;;;;;;14.13;5.93;;;;;;;15.08;70.13;99140.91;5074243;28;20024;-56
2022/07/29 04:22:23;;;;;;;11.98;5.90;;;;;;;15.56;68.35;99146.66;5072088;28;20033;-56
2022/07/29 04:24:48;;;;;;;12.80;5.95;;;;;;;16.43;63.81;99139.94;5073274;28;20474;-57
2022/07/29 04:27:13;;;;;;;15.60;6.00;;;;;;;17.69;60.14;99145.09;5071965;28;20031;-58
2022/07/29 04:29:39;;;;;;;12.77;5.47;;;;;;;18.43;58.18;99146.53;5073037;28;20078;-56
2022/07/29 04:32:05;;;;;;;18.05;6.53;;;;;;;19.48;55.85;99146.81;5072833;28;20024;-57
2022/07/29 04:34:30;;;;;;;15.68;6.30;;;;;;;20.19;54.25;99147.19;5075756;28;20055;-56
2022/07/29 04:36:56;;;;;;;17.75;6.50;;;;;;;20.60;52.42;99140.78;5073075;28;20056;-57
2022/07/29 04:39:21;;;;;;;17.15;6.35;;;;;;;20.60;52.72;99153.59;5072707;28;20024;-56
2022/07/29 04:41:47;;;;;;;12.98;6.13;;;;;;;21.02;51.23;99151.44;5072872;28;20058;-57
2022/07/29 04:44:12;;;;;;;15.15;6.20;;;;;;;21.33;50.83;99154.91;5073326;28;20028;-56
2022/07/29 04:46:38;;;;;;;11.63;5.28;;;;;;;22.52;48.32;99155.75;5072382;28;20025;-57
2022/07/29 04:49:03;;;;;;;18.08;5.72;;;;;;;20.82;51.26;99152.78;5076545;28;20086;-57
2022/07/29 04:51:28;;;;;;;13.65;5.35;;;;;;;19.55;54.59;99160.00;5072729;28;20029;-57
2022/07/29 04:53:54;;;;;;;12.23;5.45;;;;;;;18.47;58.18;99163.81;5072667;28;20078;-57
2022/07/29 04:56:19;;;;;;;18.13;7.20;;;;;;;17.71;60.65;99160.28;5072756;28;20028;-57
2022/07/29 04:58:45;;;;;;;18.77;5.50;;;;;;;17.71;60.97;99163.81;5072694;28;20036;-57
2022/07/29 05:01:10;;;;;;;12.98;6.00;;;;;;;17.67;61.90;99169.00;5072777;28;20021;-57
2022/07/29 05:03:35;;;;;;;14.93;5.38;;;;;;;17.27;62.95;99164.88;5071686;28;20036;-56
2022/07/29 05:06:01;;;;;;;18.05;5.35;;;;;;;17.14;63.49;99165.56;5072682;28;20032;-57
2022/07/29 05:08:26;;;;;;;16.38;6.45;;;;;;;17.33;63.75;99158.31;5075733;28;20051;-57
2022/07/29 05:10:52;;;;;;;21.17;6.05;;;;;;;17.50;62.41;99173.28;5072301;28;20031;-56
2022/07/29 05:13:17;;;;;;;13.15;5.50;;;;;;;17.55;61.98;99170.53;5072688;28;20073;-57
2022/07/29 05:15:43;;;;;;;11.23;5.90;;;;;;;17.65;61.83;99173.13;5071702;28;20501;-57
2022/07/29 05:18:08;;;;;;;16.40;5.75;;;;;;;17.74;61.49;99173.25;5071677;28;20031;-56
2022/07/29 05:20:34;;;;;;;19.38;6.30;;;;;;;17.83;61.52;99188.63;5077140;28;20024;-55
2022/07/29 05:23:00;;;;;;;16.65;5.88;;;;;;;17.95;63.72;99190.09;5078963;28;20020;-56
2022/07/29 05:25:25;;;;;;;12.98;5.70;;;;;;;18.30;63.18;99191.50;5074949;28;20103;-56
2022/07/29 05:27:51;;;;;;;13.10;6.05;;;;;;;18.75;61.00;99198.13;5071851;28;20120;-58
2022/07/29 05:30:16;;;;;;;14.70;5.68;;;;;;;19.05;59.92;99201.44;5074620;28;20029;-56
2022/07/29 05:32:42;;;;;;;14.48;5.90;;;;;;;19.75;56.71;99205.03;5071543;28;20021;-56
2022/07/29 05:35:08;;;;;;;18.77;6.03;;;;;;;19.56;57.12;99216.75;5071788;28;20050;-57
2022/07/29 05:37:33;;;;;;;17.27;6.28;;;;;;;18.74;60.63;99220.09;5073842;28;20036;-57
2022/07/29 05:39:58;;;;;;;24.80;5.88;;;;;;;18.78;58.03;99215.75;5072128;28;20040;-57
2022/07/29 05:42:24;;;;;;;57.35;6.60;;;;;;;18.73;55.12;99215.78;5071907;28;20028;-57
2022/07/29 05:44:50;;;;;;;33.30;5.88;;;;;;;18.68;55.38;99224.03;5071868;28;20372;-56
2022/07/29 05:47:16;;;;;;;41.95;6.50;;;;;;;19.08;54.79;99227.19;5071616;28;20474;-57
2022/07/29 05:49:41;;;;;;;40.65;6.30;;;;;;;19.56;53.61;99235.78;5071230;28;20033;-56
2022/07/29 05:52:07;;;;;;;19.45;6.03;;;;;;;19.42;53.99;99232.28;5071630;28;20033;-56
2022/07/29 05:54:32;;;;;;;28.20;5.90;;;;;;;18.92;55.76;99234.78;5072798;28;20367;-56
2022/07/29 05:56:57;;;;;;;18.98;5.93;;;;;;;18.88;56.77;99237.28;5071813;28;20024;-57
2022/07/29 05:59:23;;;;;;;24.45;5.60;;;;;;;18.43;58.83;99249.66;5077797;28;20382;-58
2022/07/29 06:01:48;;;;;;;22.17;6.35;;;;;;;18.02;60.16;99242.06;5075907;28;20492;-56
2022/07/29 06:04:14;;;;;;;16.63;6.30;;;;;;;17.95;60.98;99247.06;5075195;28;20474;-56
2022/07/29 06:06:39;;;;;;;46.70;7.15;;;;;;;18.14;59.53;99247.84;5074991;28;20040;-57
2022/07/29 06:09:04;;;;;;;65.93;8.13;;;;;;;18.08;59.80;99254.47;5075969;28;20043;-57
2022/07/29 06:11:30;;;;;;;65.32;8.32;;;;;;;18.24;59.48;99253.16;5075970;28;20086;-57
2022/07/29 06:13:55;;;;;;;68.88;8.95;;;;;;;18.01;59.96;99254.00;5077284;28;20510;-57
2022/07/29 06:16:21;;;;;;;68.25;8.15;;;;;;;18.22;59.83;99252.66;5074127;28;20021;-57
2022/07/29 06:18:46;;;;;;;46.55;7.85;;;;;;;18.62;59.36;99252.34;5075094;28;20024;-57
2022/07/29 06:21:12;;;;;;;65.38;8.48;;;;;;;18.38;59.88;99260.56;5075132;28;20029;-58
2022/07/29 06:23:38;;;;;;;40.05;7.43;;;;;;;18.67;58.93;99263.09;5075530;28;20039;-57
2022/07/29 06:26:03;;;;;;;65.20;7.65;;;;;;;19.45;56.53;99264.28;5075303;28;20029;-57
2022/07/29 06:28:29;;;;;;;55.58;8.40;;;;;;;22.01;50.29;99271.94;5078142;28;20073;-56
2022/07/29 06:30:54;;;;;;;54.45;7.40;;;;;;;23.06;46.83;99272.03;5076482;28;20024;-56
2022/07/29 06:33:19;;;;;;;51.35;7.03;;;;;;;21.11;50.73;99281.13;5074882;28;20025;-57
2022/07/29 06:35:47;;;;;;;68.30;7.07;;;;;;;24.49;43.93;99286.13;5073993;28;20032;-58
2022/07/29 06:38:13;;;;;;;48.22;6.15;;;;;;;25.85;40.63;99273.59;5075363;28;20035;-57
2022/07/29 06:40:59;;;;;;;63.08;6.68;;;;;;;26.82;39.48;99278.16;5076083;28;20050;-56
2022/07/29 06:43:31;;;;;;;32.40;6.03;;;;;;;27.89;36.85;99282.16;5075484;28;20031;-59
2022/07/29 06:45:58;;;;;;;46.55;5.60;;;;;;;28.48;36.58;99283.09;5075351;28;20024;-57
2022/07/29 06:48:23;;;;;;;44.28;5.65;;;;;;;28.62;36.42;99283.41;5074418;28;20116;-57
2022/07/29 06:50:49;;;;;;;38.25;5.30;;;;;;;27.32;37.78;99284.25;5088524;28;20028;-57
2022/07/29 06:53:15;;;;;;;34.85;4.72;;;;;;;28.02;36.86;99286.41;5075024;28;20107;-56
2022/07/29 06:55:40;;;;;;;25.75;4.07;;;;;;;27.97;36.76;99286.69;5075185;28;20730;-58
2022/07/29 06:58:07;;;;;;;27.85;4.78;;;;;;;28.63;35.96;99285.03;5078845;28;20032;-57
2022/07/29 07:00:32;;;;;;;33.20;4.60;;;;;;;28.73;35.84;99278.13;5074575;28;20086;-56
2022/07/29 07:02:58;;;;;;;24.10;5.03;;;;;;;28.00;35.95;99288.72;5075922;28;20024;-56
2022/07/29 07:05:23;;;;;;;26.77;4.32;;;;;;;28.01;36.69;99284.00;5074204;28;20037;-57
2022/07/29 07:07:49;;;;;;;20.80;4.57;;;;;;;28.40;35.45;99282.91;5074347;28;20031;-57
2022/07/29 07:10:14;;;;;;;20.13;4.72;;;;;;;27.10;37.76;99282.84;5074003;28;20036;-56
2022/07/29 07:12:40;;;;;;;23.27;5.10;;;;;;;27.83;36.78;99286.31;5074294;28;20040;-56
2022/07/29 07:15:06;;;;;;;18.85;4.25;;;;;;;29.46;34.39;99282.69;5074371;28;20036;-57
2022/07/29 07:17:31;;;;;;;16.85;4.50;;;;;;;27.53;35.90;99282.06;5079499;28;20118;-54
2022/07/29 07:19:56;;;;;;;23.00;5.65;;;;;;;28.95;34.47;99285.66;5074194;28;20056;-56
2022/07/29 07:22:22;;;;;;;28.48;5.40;;;;;;;30.07;33.42;99277.38;5074329;28;20029;-57
2022/07/29 07:24:47;;;;;;;62.38;6.47;;;;;;;29.38;34.28;99280.16;5074653;28;20032;-56
2022/07/29 07:27:13;;;;;;;25.13;4.57;;;;;;;29.15;34.95;99274.63;5074206;28;20024;-55
2022/07/29 07:29:40;;;;;;;25.35;5.13;;;;;;;26.66;37.96;99274.56;5072650;28;20051;-57
2022/07/29 07:32:06;;;;;;;27.15;4.43;;;;;;;24.16;42.83;99273.06;5074588;28;20115;-54
2022/07/29 07:34:32;;;;;;;25.00;4.80;;;;;;;23.43;43.72;99274.03;5072377;28;20030;-57
2022/07/29 07:36:57;;;;;;;15.32;4.40;;;;;;;23.53;44.59;99272.09;5074190;28;20066;-57
2022/07/29 07:39:23;;;;;;;31.00;5.03;;;;;;;23.35;44.57;99269.41;5072814;28;20035;-56
2022/07/29 07:41:48;;;;;;;21.35;4.82;;;;;;;22.89;46.31;99268.19;5072520;28;20047;-56
2022/07/29 07:44:13;;;;;;;24.08;4.82;;;;;;;23.73;44.39;99278.78;5073849;28;20025;-58
2022/07/29 07:46:39;;;;;;;20.65;4.78;;;;;;;22.77;46.74;99276.25;5073929;28;20385;-55
2022/07/29 07:49:04;;;;;;;16.60;5.25;;;;;;;22.40;47.34;99273.81;5072439;28;20028;-56
2022/07/29 07:51:30;;;;;;;17.95;4.78;;;;;;;23.09;46.86;99274.13;5072761;28;20032;-58
2022/07/29 07:53:55;;;;;;;19.98;5.53;;;;;;;23.55;46.10;99278.81;5077257;28;20127;-56
2022/07/29 07:56:21;;;;;;;15.75;4.90;;;;;;;23.99;44.78;99273.16;5073759;28;20035;-56
2022/07/29 07:58:46;;;;;;;17.15;4.90;;;;;;;24.19;44.47;99283.38;5073381;28;20478;-55
2022/07/29 08:01:11;;;;;;;23.65;5.00;;;;;;;24.49;44.89;99280.63;5073402;28;20020;-55
2022/07/29 08:03:37;;;;;;;13.65;4.82;;;;;;;25.84;41.59;99275.56;5073056;28;20417;-56
2022/07/29 08:06:03;;;;;;;13.63;4.68;;;;;;;26.71;40.12;99279.00;5078271;28;20024;-55
2022/07/29 08:08:29;;;;;;;17.00;4.70;;;;;;;27.25;38.91;99284.06;5073374;28;20378;-54
2022/07/29 08:10:58;;;;;;;32.65;5.63;;;;;;;27.43;37.15;99279.84;5073443;28;20058;-55
2022/07/29 08:13:27;;;;;;;24.77;5.28;;;;;;;26.72;38.92;99281.41;5072200;28;20024;-56
2022/07/29 08:15:59;;;;;;;24.98;5.47;;;;;;;27.77;36.89;99283.03;5073336;28;20404;-56
2022/07/29 08:18:26;;;;;;;21.27;5.82;;;;;;;26.00;39.95;99276.47;5078196;28;20060;-55
2022/07/29 08:20:51;;;;;;;20.58;5.10;;;;;;;26.99;38.47;99282.56;5071204;28;20020;-54
2022/07/29 08:23:18;;;;;;;18.48;5.03;;;;;;;26.65;38.35;99278.44;5073334;28;20020;-54
2022/07/29 08:25:44;;;;;;;22.33;5.63;;;;;;;27.81;37.60;99283.09;5073367;28;20024;-54
2022/07/29 08:28:09;;;;;;;18.02;5.00;;;;;;;27.91;36.65;99285.38;5072947;28;20028;-57
2022/07/29 08:30:35;;;;;;;21.70;5.45;;;;;;;26.81;38.62;99284.00;5076838;28;20062;-56
2022/07/29 08:33:00;;;;;;;15.25;4.43;;;;;;;27.15;38.21;99281.78;5073010;28;20024;-56
2022/07/29 08:35:26;;;;;;;20.35;5.10;;;;;;;28.32;36.03;99285.91;5086484;28;20031;-56
2022/07/29 08:37:52;;;;;;;18.52;5.40;;;;;;;27.69;36.99;99287.56;5072739;28;20497;-54
2022/07/29 08:40:17;;;;;;;14.80;5.30;;;;;;;27.87;36.03;99277.00;5071998;28;20028;-55
2022/07/29 08:42:43;;;;;;;16.95;5.20;;;;;;;27.53;37.17;99275.72;5072959;28;20031;-54
2022/07/29 08:45:08;;;;;;;23.35;5.32;;;;;;;29.44;34.87;99273.97;5072331;28;20024;-56
2022/07/29 08:47:38;;;;;;;13.93;4.38;;;;;;;27.89;37.00;99276.66;5072378;28;20031;-55
2022/07/29 08:50:04;;;;;;;14.70;4.90;;;;;;;26.69;38.12;99268.38;5072627;28;20032;-55
2022/07/29 08:52:29;;;;;;;16.70;5.07;;;;;;;27.24;38.07;99261.25;5071112;28;20078;-56
2022/07/29 08:54:55;;;;;;;13.50;5.78;;;;;;;26.57;38.32;99260.16;5071462;28;20068;-56
2022/07/29 08:57:20;;;;;;;17.17;5.38;;;;;;;26.70;38.75;99267.22;5072676;28;20028;-56
2022/07/29 08:59:46;;;;;;;18.05;5.13;;;;;;;26.57;38.52;99265.66;5076106;28;20024;-56
2022/07/29 09:02:19;;;;;;;21.25;5.50;;;;;;;27.61;37.07;99269.28;5072279;28;20035;-56
2022/07/29 09:04:46;;;;;;;15.20;5.25;;;;;;;26.51;38.53;99267.84;5071859;28;20063;-54
2022/07/29 09:07:17;;;;;;;24.13;6.40;;;;;;;26.26;38.47;99261.59;5072349;28;20106;-56
2022/07/29 09:09:43;;;;;;;29.60;6.32;;;;;;;25.97;39.09;99254.41;5070785;28;21997;-53
2022/07/29 09:12:11;;;;;;;26.98;6.55;;;;;;;26.02;39.44;99249.47;5070800;28;20036;-54
2022/07/29 09:14:39;;;;;;;21.85;5.90;;;;;;;27.11;38.12;99256.97;5071298;28;20181;-54
2022/07/29 09:17:05;;;;;;;13.40;5.47;;;;;;;28.21;36.83;99254.53;5072336;28;20024;-55
2022/07/29 09:19:37;;;;;;;19.25;6.00;;;;;;;27.71;36.47;99254.97;5071868;28;20463;-56
2022/07/29 09:22:04;;;;;;;13.93;5.07;;;;;;;28.47;36.00;99254.75;5079531;28;20024;-55
2022/07/29 09:24:41;;;;;;;22.23;5.63;;;;;;;27.87;35.70;99256.94;5072021;28;20020;-56
2022/07/29 09:27:19;;;;;;;15.25;5.13;;;;;;;25.29;39.74;99257.66;5071908;28;20025;-55
2022/07/29 09:29:45;;;;;;;11.98;5.65;;;;;;;24.82;41.21;99249.72;5078604;28;20094;-55
2022/07/29 09:32:10;;;;;;;29.15;6.47;;;;;;;24.37;41.55;99262.16;5070595;28;20475;-55
2022/07/29 09:34:36;;;;;;;23.00;6.25;;;;;;;24.81;41.57;99248.13;5071686;28;20028;-54
2022/07/29 09:37:01;;;;;;;20.75;6.15;;;;;;;24.84;41.86;99252.94;5070753;28;20024;-55
2022/07/29 09:39:35;;;;;;;18.15;6.20;;;;;;;25.93;40.52;99254.28;5072155;28;20024;-55
2022/07/29 09:42:03;;;;;;;18.48;5.25;;;;;;;26.38;39.67;99253.28;5071725;28;20035;-55
2022/07/29 09:44:48;;;;;;;14.02;6.43;;;;;;;27.43;37.42;99246.00;5071818;28;20020;-56
2022/07/29 09:47:13;;;;;;;18.55;5.93;;;;;;;27.87;36.94;99260.47;5072074;28;20028;-55
2022/07/29 09:50:05;;;;;;;20.20;5.93;;;;;;;28.04;37.00;99250.25;5070014;28;20397;-55
2022/07/29 09:52:31;;;;;;;21.17;5.50;;;;;;;28.55;35.83;99245.47;5071477;28;20037;-55
2022/07/29 09:55:06;;;;;;;16.75;5.43;;;;;;;27.23;38.10;99247.84;5071679;28;20063;-55
2022/07/29 09:57:32;;;;;;;22.17;6.13;;;;;;;27.72;36.87;99244.75;5071127;28;20517;-55
2022/07/29 09:59:58;;;;;;;15.43;5.97;;;;;;;26.45;38.85;99247.22;5069315;28;20028;-54
2022/07/29 10:02:27;;;;;;;17.02;5.85;;;;;;;25.73;40.69;99249.69;5069374;28;20100;-55
2022/07/29 10:04:53;;;;;;;16.73;6.10;;;;;;;27.10;38.81;99241.59;5067625;28;20039;-54
2022/07/29 10:07:19;;;;;;;13.13;6.15;;;;;;;27.13;37.79;99249.13;5067893;28;20041;-55
2022/07/29 10:09:55;;;;;;;23.52;6.32;;;;;;;26.47;37.73;99234.72;5067371;28;20367;-56
2022/07/29 10:12:20;;;;;;;22.85;6.13;;;;;;;27.35;37.48;99250.53;5074427;28;20028;-55
2022/07/29 10:14:46;;;;;;;15.52;6.40;;;;;;;26.74;37.98;99243.38;5071529;28;20028;-55
2022/07/29 10:17:11;;;;;;;19.88;6.53;;;;;;;28.36;35.75;99246.22;5068014;28;20502;-55
2022/07/29 10:19:37;;;;;;;19.30;6.35;;;;;;;28.40;35.40;99240.78;5068394;28;20447;-56
2022/07/29 10:22:05;;;;;;;33.20;6.60;;;;;;;27.58;36.67;99236.94;5068653;28;20031;-55
2022/07/29 10:24:31;;;;;;;21.35;6.57;;;;;;;27.69;36.61;99240.75;5074588;28;20056;-55
2022/07/29 10:27:01;;;;;;;20.30;5.65;;;;;;;26.54;38.66;99244.38;5068885;28;20119;-55
2022/07/29 10:29:26;;;;;;;23.80;6.72;;;;;;;26.52;38.89;99230.94;5072439;28;20060;-56
2022/07/29 10:32:09;;;;;;;23.33;6.57;;;;;;;26.33;39.00;99239.81;5069655;28;20031;-55
2022/07/29 10:35:12;;;;;;;16.48;6.72;;;;;;;27.24;38.43;99241.22;5063710;28;20028;-54
2022/07/29 10:37:43;;;;;;;28.08;6.88;;;;;;;27.19;38.09;99242.25;5071418;28;20024;-56
2022/07/29 10:43:26;;;;;;;22.83;6.50;;;;;;;27.68;37.21;99236.41;5070108;28;20145;-54
2022/07/29 10:46:00;;;;;;;29.48;6.85;;;;;;;27.56;36.36;99233.75;5073153;28;20025;-52
2022/07/29 10:48:26;;;;;;;27.50;6.55;;;;;;;27.27;37.18;99227.53;5073238;28;20044;-55
2022/07/29 10:51:13;;;;;;;35.30;6.90;;;;;;;28.30;35.69;99227.56;5084446;28;20031;-56
2022/07/29 10:53:51;;;;;;;25.98;7.97;;;;;;;27.89;35.74;99227.09;5075182;28;20159;-55
2022/07/29 10:56:30;;;;;;;26.83;6.93;;;;;;;29.12;34.15;99222.94;5073424;28;20038;-55
2022/07/29 10:59:14;;;;;;;;;;;;;;;29.01;34.56;99223.50;5075347;28;20119;-54
2022/07/29 11:01:39;;;;;;;17.00;6.80;;;;;;;29.56;33.21;99225.28;5074486;28;19916;-56
2022/07/29 11:04:05;;;;;;;15.65;5.82;;;;;;;30.05;32.58;99230.78;5072746;28;20049;-56
2022/07/29 11:06:58;;;;;;;17.00;5.78;;;;;;;30.26;32.78;99230.28;5074466;28;20475;-58
2022/07/29 11:09:24;;;;;;;27.50;6.57;;;;;;;30.95;31.64;99227.19;5081394;28;20467;-53
2022/07/29 11:11:49;;;;;;;19.20;6.63;;;;;;;30.98;31.04;99228.41;5077198;28;20020;-54
2022/07/29 11:14:17;;;;;;;27.27;6.65;;;;;;;30.31;32.52;99227.19;5063211;28;20025;-55
2022/07/29 11:17:03;;;;;;;21.38;7.03;;;;;;;28.84;33.52;99228.69;5074854;28;20146;-56
2022/07/29 11:19:28;;;;;;;23.40;7.05;;;;;;;27.82;35.72;99226.91;5073761;28;20020;-56
2022/07/29 11:21:54;;;;;;;23.13;6.80;;;;;;;28.60;34.26;99220.34;5063608;28;20024;-56
2022/07/29 11:24:27;;;;;;;21.55;7.25;;;;;;;28.05;34.94;99221.53;5075034;28;20456;-55
2022/07/29 11:27:12;;;;;;;19.75;7.28;;;;;;;28.24;35.00;99220.78;5074546;28;20051;-53
2022/07/29 11:29:53;;;;;;;17.08;6.40;;;;;;;27.96;35.31;99230.00;5074161;28;20076;-56
2022/07/29 11:32:21;;;;;;;18.77;6.43;;;;;;;27.10;36.50;99222.34;5078893;28;20062;-55
2022/07/29 11:34:47;;;;;;;23.02;6.97;;;;;;;27.24;36.10;99220.00;5073946;28;20017;-55